createdAt,value
2023-05-25T00:02:25.013Z,10.50
2023-05-25T00:04:52.126Z,10.50
2023-05-25T00:07:19.095Z,10.60
2023-05-25T00:09:46.556Z,10.50
2023-05-25T00:12:14.484Z,10.60
2023-05-25T00:14:41.396Z,10.40
2023-05-25T00:17:10.886Z,10.30
2023-05-25T00:19:42.288Z,10.30
2023-05-25T00:22:10.410Z,10.40
2023-05-25T00:24:38.867Z,10.50
2023-05-25T00:27:07.152Z,10.60
2023-05-25T00:29:35.026Z,10.70
2023-05-25T00:32:02.503Z,10.60
2023-05-25T00:34:29.218Z,10.60
2023-05-25T00:36:55.965Z,10.60
2023-05-25T00:39:22.875Z,10.70
2023-05-25T00:41:50.148Z,10.80
2023-05-25T00:44:21.336Z,10.90
2023-05-25T00:46:51.463Z,10.80
2023-05-25T00:49:25.167Z,10.70
2023-05-25T00:51:52.696Z,10.60
2023-05-25T00:54:20.182Z,10.60
2023-05-25T00:56:51.108Z,10.60
2023-05-25T00:59:28.626Z,10.60
2023-05-25T01:01:56.330Z,10.60
2023-05-25T01:04:28.341Z,10.60
2023-05-25T01:06:58.329Z,10.60
2023-05-25T01:09:28.114Z,10.50
2023-05-25T01:11:56.550Z,10.60
2023-05-25T01:14:24.859Z,10.50
2023-05-25T01:16:52.264Z,10.50
2023-05-25T01:19:19.072Z,10.50
2023-05-25T01:22:02.512Z,10.40
2023-05-25T01:24:47.869Z,10.50
2023-05-25T01:27:28.064Z,10.50
2023-05-25T01:29:57.302Z,10.40
2023-05-25T01:32:25.087Z,10.40
2023-05-25T01:34:55.496Z,10.50
2023-05-25T01:37:24.622Z,10.30
2023-05-25T01:39:51.331Z,10.30
2023-05-25T01:42:18.213Z,10.20
2023-05-25T01:44:45.423Z,10.10
2023-05-25T01:47:21.291Z,10.10
2023-05-25T01:50:03.274Z,10.10
2023-05-25T01:52:34.588Z,10.10
2023-05-25T01:55:06.164Z,10.20
2023-05-25T01:57:37.521Z,10.00
2023-05-25T02:00:05.687Z,10.00
2023-05-25T02:02:42.711Z,10.00
2023-05-25T02:05:10.056Z,10.20
2023-05-25T02:07:36.984Z,10.20
2023-05-25T02:10:04.136Z,10.10
2023-05-25T02:12:30.960Z,9.80
2023-05-25T02:14:58.394Z,9.90
2023-05-25T02:17:28.620Z,10.00
2023-05-25T02:19:56.012Z,10.00
2023-05-25T02:22:22.879Z,10.10
2023-05-25T02:24:49.726Z,10.20
2023-05-25T02:27:16.720Z,10.10
2023-05-25T02:29:43.709Z,9.90
2023-05-25T02:32:10.541Z,9.80
2023-05-25T02:34:37.233Z,9.80
2023-05-25T02:37:04.287Z,9.70
2023-05-25T02:39:31.030Z,9.70
2023-05-25T02:41:58.946Z,9.50
2023-05-25T02:44:26.799Z,9.50
2023-05-25T02:46:54.931Z,9.70
2023-05-25T02:49:23.319Z,9.80
2023-05-25T02:51:50.063Z,9.80
2023-05-25T02:54:17.205Z,9.80
2023-05-25T02:56:44.155Z,9.70
2023-05-25T02:59:13.588Z,9.70
2023-05-25T03:01:40.712Z,9.70
2023-05-25T03:04:07.631Z,9.70
2023-05-25T03:06:37.834Z,9.60
2023-05-25T03:09:09.738Z,9.70
2023-05-25T03:11:38.176Z,9.50
2023-05-25T03:14:05.381Z,9.70
2023-05-25T03:16:36.311Z,9.70
2023-05-25T03:19:05.398Z,9.70
2023-05-25T03:21:34.434Z,9.80
2023-05-25T03:24:01.149Z,9.90
2023-05-25T03:26:28.875Z,9.80
2023-05-25T03:28:55.688Z,9.80
2023-05-25T03:31:23.475Z,9.60
2023-05-25T03:33:50.382Z,9.60
2023-05-25T03:36:18.652Z,9.20
2023-05-25T03:38:45.557Z,9.10
2023-05-25T03:41:12.264Z,9.20
2023-05-25T03:43:39.018Z,9.10
2023-05-25T03:46:07.702Z,9.20
2023-05-25T03:48:34.522Z,9.10
2023-05-25T03:51:01.247Z,8.80
2023-05-25T03:53:28.038Z,8.60
2023-05-25T03:55:54.916Z,8.50
2023-05-25T03:58:21.657Z,8.70
2023-05-25T04:00:51.749Z,8.90
2023-05-25T04:03:19.036Z,9.00
2023-05-25T04:05:46.105Z,9.00
2023-05-25T04:08:18.072Z,8.90
2023-05-25T04:10:46.220Z,9.00
2023-05-25T04:13:13.338Z,9.20
2023-05-25T04:15:40.605Z,9.30
2023-05-25T04:18:11.860Z,9.40
2023-05-25T04:20:38.700Z,9.30
2023-05-25T04:23:06.662Z,9.30
2023-05-25T04:25:34.050Z,9.40
2023-05-25T04:28:01.490Z,9.40
2023-05-25T04:30:48.734Z,9.50
2023-05-25T04:33:39.619Z,9.30
2023-05-25T04:36:32.636Z,9.50
2023-05-25T04:39:04.261Z,9.40
2023-05-25T04:41:33.873Z,9.40
2023-05-25T04:44:09.755Z,9.60
2023-05-25T04:46:42.502Z,9.70
2023-05-25T04:49:14.994Z,10.00
2023-05-25T04:51:41.696Z,9.80
2023-05-25T04:54:08.755Z,9.70
2023-05-25T04:56:35.555Z,10.00
2023-05-25T04:59:04.359Z,9.90
2023-05-25T05:01:31.345Z,9.80
2023-05-25T05:04:01.887Z,10.00
2023-05-25T05:06:28.692Z,10.00
2023-05-25T05:08:56.305Z,9.90
2023-05-25T05:11:23.600Z,10.10
2023-05-25T05:13:50.747Z,10.10
2023-05-25T05:16:17.616Z,10.10
2023-05-25T05:18:44.330Z,10.10
2023-05-25T05:21:11.448Z,10.20
2023-05-25T05:23:38.299Z,10.30
2023-05-25T05:26:07.175Z,10.40
2023-05-25T05:28:34.208Z,10.30
2023-05-25T05:31:01.265Z,10.10
2023-05-25T05:33:28.177Z,10.20
2023-05-25T05:35:54.996Z,10.10
2023-05-25T05:38:23.721Z,10.00
2023-05-25T05:40:50.454Z,10.10
2023-05-25T05:43:22.976Z,10.30
2023-05-25T05:45:49.998Z,10.40
2023-05-25T05:48:16.814Z,10.60
2023-05-25T05:50:44.368Z,10.50
2023-05-25T05:53:12.797Z,10.60
2023-05-25T05:55:39.653Z,10.60
2023-05-25T05:58:06.622Z,10.80
2023-05-25T06:00:33.816Z,10.90
2023-05-25T06:03:01.234Z,10.90
2023-05-25T06:05:29.541Z,11.00
2023-05-25T06:07:57.696Z,11.20
2023-05-25T06:10:24.427Z,11.40
2023-05-25T06:12:52.547Z,11.50
2023-05-25T06:15:19.385Z,11.60
2023-05-25T06:17:47.921Z,11.80
2023-05-25T06:20:15.683Z,11.80
2023-05-25T06:22:42.874Z,11.90
2023-05-25T06:25:10.724Z,12.00
2023-05-25T06:27:38.038Z,12.30
2023-05-25T06:30:05.757Z,12.40
2023-05-25T06:32:32.530Z,12.40
2023-05-25T06:34:59.387Z,12.60
2023-05-25T06:37:27.384Z,12.40
2023-05-25T06:39:56.904Z,12.50
2023-05-25T06:42:24.346Z,12.60
2023-05-25T06:44:55.461Z,12.60
2023-05-25T06:47:22.301Z,12.40
2023-05-25T06:49:49.759Z,12.30
2023-05-25T06:52:16.526Z,12.40
2023-05-25T06:54:43.560Z,12.40
2023-05-25T06:57:10.473Z,12.40
2023-05-25T06:59:37.492Z,12.40
2023-05-25T07:02:04.212Z,12.50
2023-05-25T07:04:31.173Z,12.70
2023-05-25T07:06:57.940Z,12.90
2023-05-25T07:09:24.709Z,12.90
2023-05-25T07:11:51.414Z,13.00
2023-05-25T07:14:18.297Z,13.00
2023-05-25T07:16:45.177Z,13.20
2023-05-25T07:19:12.169Z,13.30
2023-05-25T07:21:38.998Z,13.20
2023-05-25T07:24:06.427Z,13.30
2023-05-25T07:26:34.137Z,13.40
2023-05-25T07:29:01.319Z,13.60
2023-05-25T07:31:28.092Z,13.70
2023-05-25T07:33:55.660Z,13.70
2023-05-25T07:36:24.688Z,13.80
2023-05-25T07:38:51.524Z,13.90
2023-05-25T07:41:18.333Z,14.00
2023-05-25T07:43:45.733Z,14.00
2023-05-25T07:46:12.508Z,14.10
2023-05-25T07:48:39.374Z,14.20
2023-05-25T07:51:07.025Z,14.40
2023-05-25T07:53:33.834Z,14.40
2023-05-25T07:56:00.761Z,14.50
2023-05-25T07:58:27.497Z,14.60
2023-05-25T08:00:54.294Z,14.60
2023-05-25T08:03:31.710Z,14.40
2023-05-25T08:06:07.397Z,14.50
2023-05-25T08:08:34.878Z,14.60
2023-05-25T08:11:02.722Z,14.50
2023-05-25T08:13:30.119Z,14.60
2023-05-25T08:15:56.841Z,14.80
2023-05-25T08:18:23.543Z,15.00
2023-05-25T08:20:50.516Z,15.10
2023-05-25T08:23:18.010Z,15.30
2023-05-25T08:25:44.908Z,15.40
2023-05-25T08:28:11.853Z,15.20
2023-05-25T08:30:38.618Z,15.20
2023-05-25T08:33:06.874Z,15.30
2023-05-25T08:35:33.661Z,15.40
2023-05-25T08:41:17.586Z,15.80
2023-05-25T08:46:53.002Z,15.90
2023-05-25T10:34:50.542Z,19.70
2023-05-25T10:37:18.622Z,20.20
2023-05-25T10:39:46.695Z,20.40
2023-05-25T10:42:13.565Z,20.50
2023-05-25T10:44:42.388Z,20.60
2023-05-25T10:47:10.203Z,20.80
2023-05-25T10:49:58.713Z,20.80
2023-05-25T10:52:29.851Z,20.80
2023-05-25T10:55:05.260Z,21.10
2023-05-25T10:57:32.650Z,21.10
2023-05-25T11:00:10.679Z,21.30
2023-05-25T11:02:55.553Z,21.40
2023-05-25T11:05:28.882Z,21.70
2023-05-25T11:07:57.302Z,21.90
2023-05-25T11:10:53.172Z,21.90
2023-05-25T11:13:39.833Z,21.90
2023-05-25T11:16:21.408Z,22.10
2023-05-25T11:18:55.995Z,22.30
2023-05-25T11:21:30.330Z,22.50
2023-05-25T11:24:04.354Z,22.40
2023-05-25T11:26:33.637Z,22.50
2023-05-25T11:30:08.176Z,22.40
2023-05-25T11:32:39.932Z,22.50
2023-05-25T11:35:09.363Z,22.70
2023-05-25T11:37:37.528Z,22.70
2023-05-25T11:40:07.465Z,22.80
2023-05-25T11:42:34.686Z,22.90
2023-05-25T11:45:33.466Z,23.00
2023-05-25T11:48:01.034Z,23.10
2023-05-25T11:50:28.472Z,23.40
2023-05-25T11:52:56.002Z,23.70
2023-05-25T11:58:22.884Z,23.90
2023-05-25T12:12:52.218Z,23.60
2023-05-25T12:15:23.849Z,23.50
2023-05-25T12:17:52.070Z,23.30
2023-05-25T12:20:19.712Z,23.40
2023-05-25T12:22:47.325Z,23.60
2023-05-25T12:25:18.370Z,23.60
2023-05-25T12:27:45.096Z,23.40
2023-05-25T12:30:11.963Z,23.30
2023-05-25T12:33:03.825Z,23.40
2023-05-25T12:35:48.199Z,23.20
2023-05-25T12:38:19.716Z,23.20
2023-05-25T12:40:47.015Z,23.30
2023-05-25T12:43:15.242Z,23.60
2023-05-25T12:45:43.265Z,23.70
2023-05-25T12:48:10.695Z,24.00
2023-05-25T12:50:37.706Z,24.00
2023-05-25T12:53:05.170Z,24.20
2023-05-25T12:55:34.202Z,24.30
2023-05-25T12:58:06.165Z,24.30
2023-05-25T13:00:35.278Z,24.40
2023-05-25T13:03:03.378Z,24.50
2023-05-25T13:05:36.557Z,24.20
2023-05-25T13:08:04.435Z,24.10
2023-05-25T13:10:32.785Z,24.30
2023-05-25T13:12:59.865Z,24.40
2023-05-25T13:15:28.080Z,24.40
2023-05-25T13:17:56.401Z,24.60
2023-05-25T13:20:28.231Z,24.60
2023-05-25T13:22:58.058Z,24.80
2023-05-25T13:25:27.454Z,24.70
2023-05-25T13:27:55.064Z,24.50
2023-05-25T13:30:22.363Z,24.50
2023-05-25T13:32:51.585Z,24.60
2023-05-25T13:35:23.954Z,24.70
2023-05-25T13:37:51.148Z,24.70
2023-05-25T13:40:18.269Z,24.70
2023-05-25T13:42:45.090Z,24.50
2023-05-25T13:45:12.308Z,24.50
2023-05-25T13:47:39.559Z,24.50
2023-05-25T13:50:07.062Z,24.50
2023-05-25T13:52:33.756Z,24.50
2023-05-25T13:55:00.451Z,24.60
2023-05-25T13:57:27.134Z,24.60
2023-05-25T13:59:53.815Z,24.70
2023-05-25T14:02:20.588Z,24.80
2023-05-25T14:04:47.874Z,24.80
2023-05-25T14:07:14.750Z,24.90
2023-05-25T14:09:41.545Z,25.00
2023-05-25T14:12:08.443Z,24.90
2023-05-25T14:14:35.178Z,24.70
2023-05-25T14:17:01.953Z,24.60
2023-05-25T14:19:28.919Z,24.70
2023-05-25T14:22:11.916Z,24.60
2023-05-25T14:24:39.754Z,24.50
2023-05-25T14:27:09.333Z,24.40
2023-05-25T14:29:36.288Z,24.40
2023-05-25T14:32:03.238Z,24.30
2023-05-25T14:34:30.115Z,24.30
2023-05-25T14:36:56.847Z,24.60
2023-05-25T14:39:23.578Z,24.50
2023-05-25T14:41:50.530Z,24.60
2023-05-25T14:44:17.222Z,24.60
2023-05-25T14:46:43.956Z,24.50
2023-05-25T14:49:10.774Z,24.40
2023-05-25T14:51:38.117Z,24.30
2023-05-25T14:54:07.678Z,24.10
2023-05-25T14:56:34.892Z,24.20
2023-05-25T14:59:01.782Z,24.30
2023-05-25T15:01:29.335Z,24.10
2023-05-25T15:03:56.422Z,24.10
2023-05-25T15:06:23.335Z,24.10
2023-05-25T15:08:50.010Z,24.10
2023-05-25T15:11:18.075Z,24.10
2023-05-25T15:13:44.954Z,24.00
2023-05-25T15:16:12.894Z,24.00
2023-05-25T15:18:39.682Z,24.10
2023-05-25T15:21:06.515Z,24.00
2023-05-25T15:23:33.336Z,24.00
2023-05-25T15:26:04.428Z,24.20
2023-05-25T15:28:31.575Z,24.10
2023-05-25T15:31:00.753Z,24.00
2023-05-25T15:33:39.998Z,24.10
2023-05-25T15:36:10.881Z,24.00
2023-05-25T15:38:37.575Z,24.10
2023-05-25T15:41:04.446Z,24.00
2023-05-25T15:43:31.218Z,24.00
2023-05-25T15:45:57.903Z,23.90
2023-05-25T15:48:26.312Z,23.80
2023-05-25T15:50:53.202Z,23.80
2023-05-25T15:53:19.975Z,23.80
2023-05-25T15:55:46.752Z,23.70
2023-05-25T15:58:13.706Z,23.70
2023-05-25T16:00:40.434Z,23.80
2023-05-25T16:03:07.565Z,23.90
2023-05-25T16:05:34.267Z,23.90
2023-05-25T16:08:00.953Z,23.90
2023-05-25T16:10:27.649Z,23.60
2023-05-25T16:12:54.831Z,23.60
2023-05-25T16:15:22.890Z,23.60
2023-05-25T16:17:49.592Z,23.70
2023-05-25T16:20:16.384Z,23.60
2023-05-25T16:22:43.629Z,23.70
2023-05-25T16:25:10.720Z,23.60
2023-05-25T16:27:37.473Z,23.40
2023-05-25T16:30:04.785Z,23.30
2023-05-25T16:32:32.733Z,23.30
2023-05-25T16:34:59.568Z,23.20
2023-05-25T16:37:26.357Z,23.30
2023-05-25T16:39:53.210Z,23.30
2023-05-25T16:42:19.912Z,23.20
2023-05-25T16:44:46.614Z,23.20
2023-05-25T16:47:13.334Z,23.20
2023-05-25T16:49:40.021Z,23.20
2023-05-25T16:52:06.759Z,23.20
2023-05-25T16:54:33.453Z,23.10
2023-05-25T16:57:00.159Z,23.00
2023-05-25T16:59:26.879Z,23.00
2023-05-25T17:01:53.720Z,22.80
2023-05-25T17:04:20.522Z,22.80
2023-05-25T17:06:47.369Z,22.80
2023-05-25T17:09:14.128Z,22.60
2023-05-25T17:11:40.815Z,22.60
2023-05-25T17:14:07.530Z,22.70
2023-05-25T17:16:34.284Z,22.80
2023-05-25T17:19:01.107Z,22.80
2023-05-25T17:21:27.860Z,22.90
2023-05-25T17:23:54.533Z,22.80
2023-05-25T17:26:21.219Z,22.80
2023-05-25T17:28:48.818Z,22.60
2023-05-25T17:31:15.910Z,22.60
2023-05-25T17:33:43.437Z,22.60
2023-05-25T17:36:10.300Z,22.70
2023-05-25T17:38:38.019Z,22.70
2023-05-25T17:41:04.774Z,22.60
2023-05-25T17:43:31.449Z,22.60
2023-05-25T17:45:59.194Z,22.60
2023-05-25T17:48:25.958Z,22.60
2023-05-25T17:50:52.689Z,22.60
2023-05-25T17:53:19.449Z,22.50
2023-05-25T17:55:46.422Z,22.40
2023-05-25T17:58:13.169Z,22.30
2023-05-25T18:00:39.901Z,22.20
2023-05-25T18:03:06.797Z,22.10
2023-05-25T18:05:33.552Z,22.10
2023-05-25T18:08:00.716Z,22.00
2023-05-25T18:10:27.412Z,22.00
2023-05-25T18:12:54.171Z,21.90
2023-05-25T18:15:21.712Z,21.90
2023-05-25T18:17:49.298Z,21.90
2023-05-25T18:20:17.774Z,21.70
2023-05-25T18:22:44.842Z,21.70
2023-05-25T18:25:12.821Z,21.50
2023-05-25T18:27:39.707Z,21.50
2023-05-25T18:30:10.963Z,21.50
2023-05-25T18:32:38.236Z,21.30
2023-05-25T18:35:05.700Z,21.20
2023-05-25T18:37:35.627Z,20.90
2023-05-25T18:40:03.543Z,20.80
2023-05-25T18:42:30.648Z,20.70
2023-05-25T18:44:57.872Z,20.60
2023-05-25T18:47:26.380Z,20.50
2023-05-25T18:49:53.280Z,20.40
2023-05-25T18:52:20.452Z,20.30
2023-05-25T18:54:48.762Z,20.20
2023-05-25T18:57:16.366Z,20.00
2023-05-25T18:59:43.519Z,19.60
2023-05-25T19:02:10.455Z,19.50
2023-05-25T19:04:37.775Z,19.40
2023-05-25T19:07:04.788Z,19.20
2023-05-25T19:09:34.625Z,19.00
2023-05-25T19:12:07.303Z,18.90
2023-05-25T19:14:34.492Z,18.80
2023-05-25T19:17:01.548Z,18.70
2023-05-25T19:19:28.801Z,18.60
2023-05-25T19:21:56.229Z,18.60
2023-05-25T19:24:23.386Z,18.50
2023-05-25T19:26:50.877Z,18.40
2023-05-25T19:29:18.054Z,18.50
2023-05-25T19:31:45.009Z,18.60
2023-05-25T19:34:12.069Z,18.50
2023-05-25T19:36:39.241Z,18.40
2023-05-25T19:39:06.662Z,18.30
2023-05-25T19:41:33.680Z,18.30
2023-05-25T19:44:00.810Z,18.30
2023-05-25T19:46:27.868Z,18.30
2023-05-25T19:48:59.555Z,18.20
2023-05-25T19:51:26.693Z,18.30
2023-05-25T19:53:55.235Z,18.10
2023-05-25T19:56:23.076Z,18.10
2023-05-25T19:58:53.236Z,18.00
2023-05-25T20:01:20.064Z,18.00
2023-05-25T20:03:48.188Z,17.90
2023-05-25T20:06:15.442Z,17.80
2023-05-25T20:08:42.270Z,17.70
2023-05-25T20:11:10.768Z,17.60
2023-05-25T20:13:38.315Z,17.40
2023-05-25T20:16:11.228Z,17.30
2023-05-25T20:18:38.210Z,17.40
2023-05-25T20:21:10.391Z,17.30
2023-05-25T20:23:37.891Z,17.10
2023-05-25T20:26:04.814Z,17.10
2023-05-25T20:28:32.720Z,17.10
2023-05-25T20:31:19.708Z,17.00
2023-05-25T20:33:46.704Z,17.00
2023-05-25T20:36:22.699Z,16.80
2023-05-25T20:39:10.438Z,16.70
2023-05-25T20:41:40.113Z,16.80
2023-05-25T20:44:17.445Z,16.60
2023-05-25T20:46:44.329Z,16.50
2023-05-25T20:49:15.883Z,16.40
2023-05-25T20:51:53.071Z,16.30
2023-05-25T20:54:21.100Z,16.20
2023-05-25T20:56:57.167Z,16.20
2023-05-25T20:59:24.674Z,16.10
2023-05-25T21:01:52.211Z,16.10
2023-05-25T21:04:33.986Z,16.10
2023-05-25T21:07:00.767Z,16.10
2023-05-25T21:09:27.767Z,16.20
2023-05-25T21:11:54.680Z,16.10
2023-05-25T21:14:22.015Z,15.90
2023-05-25T21:16:50.003Z,15.80
2023-05-25T21:19:17.664Z,15.80
2023-05-25T21:21:44.721Z,15.90
2023-05-25T21:24:32.464Z,15.90
2023-05-25T21:26:59.246Z,15.90
2023-05-25T21:29:26.228Z,15.80
2023-05-25T21:31:57.032Z,15.80
2023-05-25T21:34:25.347Z,15.80
2023-05-25T21:36:52.725Z,15.70
2023-05-25T21:39:19.882Z,15.70
2023-05-25T21:41:48.125Z,15.70
2023-05-25T21:44:17.764Z,15.70
2023-05-25T21:46:45.016Z,15.50
2023-05-25T21:49:15.387Z,15.30
2023-05-25T21:51:42.562Z,15.20
2023-05-25T21:54:16.227Z,15.30
2023-05-25T21:56:43.095Z,15.20
2023-05-25T21:59:16.485Z,15.10
2023-05-25T22:01:43.567Z,15.10
2023-05-25T22:04:10.389Z,15.20
2023-05-25T22:06:37.548Z,15.20
2023-05-25T22:09:04.920Z,15.40
2023-05-25T22:11:31.781Z,15.50
2023-05-25T22:13:59.564Z,15.50
2023-05-25T22:16:26.364Z,15.70
2023-05-25T22:18:53.064Z,15.60
2023-05-25T22:21:20.385Z,15.60
2023-05-25T22:23:47.373Z,15.60
2023-05-25T22:26:14.122Z,15.50
2023-05-25T22:28:40.933Z,15.40
2023-05-25T22:31:07.896Z,15.40
2023-05-25T22:33:34.715Z,15.40
2023-05-25T22:36:01.422Z,15.60
2023-05-25T22:38:28.386Z,15.60
2023-05-25T22:40:55.389Z,15.60
2023-05-25T22:43:22.569Z,15.60
2023-05-25T22:45:49.511Z,15.60
2023-05-25T22:48:16.241Z,15.50
2023-05-25T22:50:43.298Z,15.50
2023-05-25T22:53:09.989Z,15.50
2023-05-25T22:55:36.772Z,15.50
2023-05-25T22:58:03.655Z,15.60
2023-05-25T23:00:33.474Z,15.40
2023-05-25T23:03:02.399Z,15.40
2023-05-25T23:05:30.988Z,15.30
2023-05-25T23:07:59.332Z,15.10
2023-05-25T23:10:26.164Z,15.20
2023-05-25T23:12:54.577Z,15.10
2023-05-25T23:15:22.392Z,15.10
2023-05-25T23:17:49.393Z,15.20
2023-05-25T23:20:16.362Z,15.10
2023-05-25T23:22:43.260Z,15.10
2023-05-25T23:25:10.366Z,15.10
2023-05-25T23:27:37.154Z,15.20
2023-05-25T23:30:05.382Z,15.10
2023-05-25T23:32:32.207Z,15.20
2023-05-25T23:34:58.948Z,15.10
2023-05-25T23:37:25.651Z,15.10
2023-05-25T23:39:52.874Z,15.20
2023-05-25T23:42:19.567Z,15.20
2023-05-25T23:44:46.680Z,15.10
2023-05-25T23:47:13.657Z,15.10
2023-05-25T23:49:41.507Z,15.10
2023-05-25T23:52:08.752Z,15.00
2023-05-25T23:54:35.826Z,14.90
2023-05-25T23:57:02.568Z,14.90
2023-05-25T23:59:29.406Z,14.80
